Logo AVAMET
Benvolgut visitant, si us plau, ingressa Recuperar contrasenya
AVAMET paisatges

Pinet

Dades diàries. Acumulats / Últims 30 dies disponibles

Data Temperatura (°C) Humitat rel. (%) Pressió rel. (hPa) Vent (km/h) Precipitació
Mínima Mitjana Màxima Amplitud
tèrmica
Mínima Mitjana Màxima Mínima Mitjana Màxima Predom. Mitjana Ràfega
màxima
Total
(mm)
Índex-n
Mínima Mitjana Màxima Mínima Mitjana Màxima n
0 a 1
P0 max
mm 5'
Dades mensuals acumulades fins l'últim dia disponible
10/2020 6,8 11,4 17,1 17,0 17,5 23,0 29,6 22,8 22 64 96 992 1.018 1.028   4,7 74,0 10,6
Dades anuals acumulades fins l'últim dia disponible
2020 2,2 13,0 22,9 18,1 8,6 23,7 41,1 38,9 20 70 98 992 1.018 1.035   4,5 90,1 886,6
Últims 30 dies disponibles
31-10-2020 9,5     17,6     27,5 18,0 34 71 95 1.022 1.024 1.026 OSO 2,2 16,1 0,0
30-10-2020 11,3     17,4     26,3 15,0 34 71 91 1.024 1.026 1.027 NW 2,1 17,7 0,0
29-10-2020 10,8     16,2     23,3 12,5 48 73 89 1.024 1.026 1.028 W 2,3 20,9 0,0
28-10-2020 10,7     16,6     24,6 13,9 50 61 71 1.020 1.021 1.022 WNW 2,7 19,3 0,0
27-10-2020 7,7     13,8     18,8 11,1 36 51 67 1.018 1.019 1.021 WNW 7,6 35,4 0,0
26-10-2020 11,9     14,7     17,5 5,6 40 54 74 1.011 1.015 1.020 WNW 12,9 49,9 0,0
25-10-2020 13,7     18,1     23,4 9,7 38 54 73 1.012 1.017 1.022 WSW 7,7 38,6 0,0
24-10-2020 9,2     16,2     22,2 13,0 40 60 83 1.022 1.024 1.026 WNW 5,5 33,8 0,0
23-10-2020 13,2     17,3     21,9 8,7 40 67 95 1.017 1.021 1.025 WNW 6,4 41,8 0,0
22-10-2020 15,2     17,5     19,5 4,3 67 83 95 1.013 1.014 1.017 WNW 1,3 17,7 1,6
21-10-2020 13,9     19,2     25,2 11,3 48 76 96 1.010 1.011 1.014 E 2,9 25,7 0,0
20-10-2020 11,5     15,6     20,1 8,6 77 88 95 1.011 1.016 1.019 ESE 1,6 12,9 0,0
19-10-2020 11,7     16,1     20,7 9,0 66 81 93 1.019 1.021 1.023 WNW 3,2 29,0 0,0
18-10-2020 8,9     14,8     21,0 12,1 57 79 92 1.020 1.021 1.023 NW 2,9 22,5 0,0
17-10-2020 6,8     13,9     22,1 15,3 28 61 85 1.016 1.018 1.020 NW 2,9 20,9 0,0
16-10-2020 6,8     13,1     19,4 12,6 30 53 74 1.016 1.018 1.019 NW 4,3 24,1 0,0
15-10-2020 8,7     14,3     20,1 11,4 30 49 74 1.014 1.015 1.017 WNW 5,0 30,6 0,0
14-10-2020 11,7     15,4     18,9 7,2 52 69 88 1.009 1.010 1.014 NW 3,7 29,0 0,0
13-10-2020 9,7     17,6     25,1 15,4 35 50 66 1.012 1.015 1.020 WNW 4,7 33,8 0,0
12-10-2020 7,9     14,4     21,3 13,4 30 51 71 1.019 1.021 1.023 WNW 3,7 22,5 0,0
11-10-2020 12,7     17,3     21,8 9,1 34 59 90 1.019 1.021 1.023 NE 6,1 29,0 0,2
10-10-2020 17,1     19,7     22,8 5,7 71 82 92 1.020 1.021 1.023 W 3,2 32,2 0,0
09-10-2020 15,4     21,3     28,8 13,4 41 76 93 1.020 1.022 1.023 WNW 3,4 20,9 0,0
08-10-2020 14,0     19,9     24,6 10,6 51 73 92 1.021 1.023 1.025 NW 3,7 24,1 0,0
07-10-2020 15,0     22,0     29,6 14,6 28 53 75 1.020 1.021 1.023 WNW 3,5 22,5 0,0
06-10-2020 11,0     18,9     27,6 16,6 37 52 68 1.019 1.021 1.023 WNW 2,9 27,4 0,0
05-10-2020 12,1     16,2     22,0 9,9 34 58 76 1.013 1.016 1.021 WNW 4,2 32,2 0,0
04-10-2020 10,2     16,3     22,7 12,5 39 56 74 1.008 1.010 1.013 WNW 7,2 41,8 0,0
03-10-2020 10,0     14,8     19,7 9,7 36 52 70 1.002 1.007 1.012 WNW 10,8 45,1 0,0
02-10-2020 9,8     18,3     24,8 15,0 45 62 94 992 999 1.006 WNW 10,8 74,0 8,8
Últims 13 mesos disponibles
09/2020 10,8 16,4 20,7 21,5 21,5 27,0 31,1 20,3 41 68 82 1.012 1.017 1.023 WNW 4,3 59,5 27,4
08/2020 13,0 20,0 22,9 26,2 24,4 32,4 41,1 28,1 42 65 81 1.004 1.013 1.018 E 4,7 43,5 2,0
07/2020 16,5 19,7 21,8 25,2 26,4 30,9 38,3 21,8 52 70 82 1.011 1.016 1.020 E 4,5 53,1 7,0
06/2020 12,2 16,3 21,4 22,4 20,7 28,6 33,2 21,0 42 66 86 1.005 1.014 1.020 WNW 5,0 46,7 21,6
05/2020 10,1 13,6 16,9 19,4 16,6 25,3 31,4 21,3 51 68 91 1.006 1.017 1.027 WNW 4,3 51,5 76,0
04/2020 6,0 10,1 15,4 13,9 14,5 18,5 24,0 18,0 54 78 95 1.006 1.016 1.026 E 4,1 53,1 69,4
03/2020 2,9 8,7 13,2 12,5 8,6 16,8 26,9 24,0 48 73 96 1.008 1.017 1.027 WNW 6,3 90,1 122,2
02/2020 3,4 8,1 11,1 13,4 12,9 20,1 25,4 22,0 42 69 89 1.014 1.026 1.033 WNW 3,2 48,3 2,2
01/2020 2,2 5,4 11,7 9,3 9,2 14,6 18,4 16,2 60 79 98 1.016 1.026 1.033 NW 4,1 78,9 548,2
12/2019 3,9 8,3 16,9 11,9 10,1 16,5 23,5 19,6 51 75 96 1.004 1.019 1.033 WNW 5,4 95,0 276,4
11/2019 1,3 9,0 18,3 13,0 12,5 17,0 24,3 23,0 53 65 83 1.000 1.012 1.019 WNW 7,3 64,4 18,6
10/2019 8,9 13,8 17,8 18,5 14,0 24,1 31,6 22,7 45 70 93 1.009 1.017 1.022 NW 3,3 43,5 43,2
09/2019 12,3 17,7 20,6 22,1 20,3 26,8 33,9 21,6 43 75 93 1.010 1.017 1.024 NW 4,6 57,9 146,8
Tots els anys disponibles
2019 -1,2 12,0 25,4 17,0 10,1 22,5 39,6 40,8 33 66 96 996 1.017 1.034 WNW 4,9 95,0 907,0
2018 -1,3 11,7 22,8 16,8 4,8 22,3 36,9 38,2 WNW 4,8 83,7 885,6
2017
Temperatura (°C)
Humitat relativa (%)
Velocitat del vent i ràfega màxima (km/h)
Direcció del vent (°)
Pressió (hPa)
Precipitació (mm)
Nota sobre les dades: s'avisa a l'usuari de la provisionalitat i no oficialitat d'aquestes dades
Logo AVAMET blanc
Web allotjada a Sollutia
Llicència de Creative CommonsLa web d'AVAMET i els seus continguts estan subjectes a una llicència de
Reconeixement - No Comercial - Compartir igual
Avís legal - Política de privacitat - Política de cookies
NOVES ESTACIONS: El Fondó dels Frares (Estació pròpia d'AVAMET nº34), Onda - Raval de St. Josep (Soci), Agres - Foia Ampla de Mariola (Socis), Beniarjó (Inforatge), Sueca - Mareny de Barraquetes (Inforatge), La Vilavella - Centre (Ajuntament Soci), Alfondeguilla (Soci), Santa Magdalena de Polpís (Soci), Benafigos (Ajuntament Soci) - - -